Time;durP1;ratioP1;P1;durP2;ratioP2;P2;SDS_P1;SDS_P2;PMS_P1;PMS_P2;Temp;Humidity;BMP_temperature;BMP_pressure;BME280_temperature;BME280_humidity;BME280_pressure;Samples;Min_cycle;Max_cycle;Signal;HPM_P1;HPM_P2
2023/05/14 00:01:04;;;;;;;22.25;18.85;;;14.90;99.90;;;;;;5031427;28;20025;-84
2023/05/14 00:03:29;;;;;;;26.73;18.58;;;14.90;99.90;;;;;;5030836;28;20029;-84
2023/05/14 00:05:55;;;;;;;24.10;19.02;;;14.90;99.90;;;;;;5031471;28;20025;-84
2023/05/14 00:08:20;;;;;;;28.10;19.15;;;14.90;99.90;;;;;;5031555;28;20025;-84
2023/05/14 00:10:46;;;;;;;21.90;17.83;;;14.90;99.90;;;;;;5030624;28;20461;-83
2023/05/14 00:13:11;;;;;;;21.35;17.42;;;14.80;99.90;;;;;;5031295;28;20362;-83
2023/05/14 00:15:37;;;;;;;21.73;18.70;;;14.70;99.90;;;;;;5031091;28;20025;-83
2023/05/14 00:18:03;;;;;;;24.60;18.40;;;14.70;99.90;;;;;;5030522;28;20021;-83
2023/05/14 00:20:28;;;;;;;22.20;18.30;;;14.70;99.90;;;;;;5031304;28;20021;-83
2023/05/14 00:22:54;;;;;;;22.88;18.38;;;14.70;99.90;;;;;;5030911;28;20468;-84
2023/05/14 00:25:19;;;;;;;21.92;16.75;;;14.60;99.90;;;;;;5030701;28;20025;-83
2023/05/14 00:27:45;;;;;;;21.40;17.27;;;14.70;99.90;;;;;;5030769;28;20504;-83
2023/05/14 00:30:11;;;;;;;19.67;17.33;;;14.60;99.90;;;;;;5031344;28;20030;-84
2023/05/14 00:32:36;;;;;;;21.85;17.23;;;14.60;99.90;;;;;;5030128;28;20025;-84
2023/05/14 00:35:03;;;;;;;22.85;17.08;;;14.70;99.90;;;;;;5030976;28;20100;-84
2023/05/14 00:37:29;;;;;;;20.73;17.20;;;14.80;99.90;;;;;;5031270;28;20029;-84
2023/05/14 00:39:54;;;;;;;23.98;16.40;;;14.90;99.90;;;;;;5030181;28;20384;-84
2023/05/14 00:42:20;;;;;;;21.08;16.00;;;14.80;99.90;;;;;;5030776;28;20093;-83
2023/05/14 00:44:45;;;;;;;26.80;16.80;;;15.00;99.90;;;;;;5030794;28;20493;-84
2023/05/14 00:47:11;;;;;;;26.77;16.52;;;15.60;99.90;;;;;;5029897;28;20106;-84
2023/05/14 00:49:39;;;;;;;23.42;16.70;;;15.10;99.90;;;;;;5030633;28;20060;-84
2023/05/14 00:52:05;;;;;;;19.48;15.77;;;15.10;99.90;;;;;;5030995;28;20030;-84
2023/05/14 00:54:32;;;;;;;19.02;15.80;;;15.10;99.90;;;;;;5030447;28;20018;-84
2023/05/14 00:56:58;;;;;;;19.38;16.27;;;15.20;99.90;;;;;;5030651;28;20030;-84
2023/05/14 00:59:25;;;;;;;26.35;16.75;;;15.00;99.90;;;;;;5030141;28;20033;-84
2023/05/14 01:01:50;;;;;;;25.40;16.23;;;15.10;99.90;;;;;;5030378;28;20029;-84
2023/05/14 01:04:16;;;;;;;19.02;15.13;;;15.10;99.90;;;;;;5030642;28;20032;-83
2023/05/14 01:07:03;;;;;;;17.55;15.40;;;15.20;99.90;;;;;;5029410;28;20913;-84
2023/05/14 01:09:54;;;;;;;22.20;14.57;;;15.30;99.90;;;;;;5030079;28;20029;-84
2023/05/14 01:12:26;;;;;;;28.13;16.55;;;15.40;99.90;;;;;;5030814;28;20045;-83
2023/05/14 01:15:03;;;;;;;17.00;14.20;;;15.40;99.90;;;;;;5029850;28;20540;-84
2023/05/14 01:17:36;;;;;;;20.58;15.73;;;15.40;99.90;;;;;;5030392;28;20028;-84
2023/05/14 01:20:02;;;;;;;22.27;14.88;;;15.50;99.90;;;;;;5030259;28;20477;-84
2023/05/14 01:22:27;;;;;;;20.58;16.40;;;15.50;99.90;;;;;;5029720;28;20065;-83
2023/05/14 01:24:53;;;;;;;18.23;16.33;;;15.10;99.90;;;;;;5029946;28;20057;-83
2023/05/14 01:27:30;;;;;;;18.20;15.48;;;15.00;99.90;;;;;;5030044;28;20117;-84
2023/05/14 01:30:27;;;;;;;19.65;15.30;;;14.90;99.90;;;;;;5030093;28;20057;-84
2023/05/14 01:32:56;;;;;;;18.83;16.17;;;14.70;99.90;;;;;;5030029;28;20108;-83
2023/05/14 01:35:25;;;;;;;22.15;16.23;;;14.50;99.90;;;;;;5029776;28;20372;-84
2023/05/14 01:37:54;;;;;;;23.77;16.40;;;14.40;99.90;;;;;;5029788;28;20588;-84
2023/05/14 01:40:20;;;;;;;21.35;15.82;;;14.30;99.90;;;;;;5030123;28;20046;-83
2023/05/14 01:42:46;;;;;;;18.58;15.45;;;14.20;99.90;;;;;;5028802;28;20564;-83
2023/05/14 01:45:11;;;;;;;20.38;15.80;;;14.30;99.90;;;;;;5029839;28;20112;-84
2023/05/14 01:47:38;;;;;;;18.23;14.82;;;14.30;99.90;;;;;;5029705;28;20049;-83
2023/05/14 01:50:04;;;;;;;17.60;15.15;;;14.30;99.90;;;;;;5028826;28;20108;-83
2023/05/14 01:52:29;;;;;;;20.85;15.75;;;14.20;99.90;;;;;;5029495;28;20025;-83
2023/05/14 01:54:57;;;;;;;16.58;14.75;;;14.10;99.90;;;;;;5029532;28;20022;-83
2023/05/14 01:57:22;;;;;;;22.75;15.95;;;14.10;99.90;;;;;;5029030;28;20052;-84
2023/05/14 01:59:48;;;;;;;16.13;14.02;;;14.10;99.90;;;;;;5029640;28;20060;-83
2023/05/14 02:02:13;;;;;;;17.95;14.45;;;14.10;99.90;;;;;;5029948;28;20018;-84
2023/05/14 02:04:39;;;;;;;22.17;15.35;;;14.20;99.90;;;;;;5028986;28;20033;-83
2023/05/14 02:07:05;;;;;;;17.45;14.45;;;14.10;99.90;;;;;;5029692;28;20049;-84
2023/05/14 02:09:30;;;;;;;17.58;13.90;;;14.20;99.90;;;;;;5029565;28;20467;-83
2023/05/14 02:11:56;;;;;;;15.57;13.98;;;14.40;99.90;;;;;;5029046;28;20032;-83
2023/05/14 02:14:22;;;;;;;18.48;13.32;;;14.40;99.90;;;;;;5029451;28;20025;-83
2023/05/14 02:16:47;;;;;;;19.92;14.15;;;14.40;99.90;;;;;;5028471;28;20033;-84
2023/05/14 02:19:13;;;;;;;19.85;13.95;;;14.40;99.90;;;;;;5029355;28;20018;-83
2023/05/14 02:21:39;;;;;;;22.40;14.13;;;14.30;99.90;;;;;;5028248;28;20397;-83
2023/05/14 02:24:04;;;;;;;26.13;14.63;;;14.30;99.90;;;;;;5028764;28;20720;-84
2023/05/14 02:26:30;;;;;;;15.40;13.82;;;14.30;99.90;;;;;;5029540;28;20476;-83
2023/05/14 02:28:55;;;;;;;17.30;14.57;;;14.20;99.90;;;;;;5029256;28;20018;-84
2023/05/14 02:31:21;;;;;;;17.25;15.02;;;14.10;99.90;;;;;;5028430;28;20029;-84
2023/05/14 02:33:46;;;;;;;17.75;14.55;;;14.00;99.90;;;;;;5028985;28;20026;-83
2023/05/14 02:36:12;;;;;;;14.23;12.63;;;14.00;99.90;;;;;;5029460;28;20117;-84
2023/05/14 02:38:38;;;;;;;18.98;14.05;;;14.10;99.90;;;;;;5028378;28;20046;-84
2023/05/14 02:41:03;;;;;;;16.90;14.95;;;14.10;99.90;;;;;;5029060;28;20025;-84
2023/05/14 02:43:29;;;;;;;15.80;14.13;;;14.00;99.90;;;;;;5029219;28;20058;-84
2023/05/14 02:45:54;;;;;;;19.83;15.45;;;13.90;99.90;;;;;;5028346;28;20120;-84
2023/05/14 02:48:20;;;;;;;22.05;15.20;;;13.90;99.90;;;;;;5028808;28;20034;-83
2023/05/14 02:50:47;;;;;;;22.25;15.57;;;13.90;99.90;;;;;;5028907;28;20061;-83
2023/05/14 02:53:12;;;;;;;20.17;15.32;;;13.90;99.90;;;;;;5028567;28;20376;-84
2023/05/14 02:55:38;;;;;;;19.10;14.07;;;13.90;99.90;;;;;;5028597;28;20022;-83
2023/05/14 02:58:03;;;;;;;17.10;15.18;;;14.00;99.90;;;;;;5028730;28;20026;-84
2023/05/14 03:00:29;;;;;;;17.05;14.15;;;14.10;99.90;;;;;;5028489;28;20113;-83
2023/05/14 03:02:54;;;;;;;16.98;15.15;;;14.10;99.90;;;;;;5028676;28;20026;-83
2023/05/14 03:05:23;;;;;;;20.23;15.38;;;14.00;99.90;;;;;;5028666;28;20029;-83
2023/05/14 03:07:52;;;;;;;27.52;15.50;;;13.90;99.90;;;;;;5028104;28;20033;-83
2023/05/14 03:10:18;;;;;;;20.02;15.57;;;13.90;99.90;;;;;;5028843;28;20052;-83
2023/05/14 03:12:43;;;;;;;17.30;14.73;;;13.80;99.90;;;;;;5028772;28;20473;-83
2023/05/14 03:15:09;;;;;;;17.27;14.90;;;13.80;99.90;;;;;;5028144;28;20025;-83
2023/05/14 03:17:35;;;;;;;22.20;15.75;;;13.80;99.90;;;;;;5028366;28;20108;-83
2023/05/14 03:20:01;;;;;;;22.05;15.15;;;13.90;99.90;;;;;;5028429;28;20155;-83
2023/05/14 03:22:26;;;;;;;22.63;14.75;;;13.80;99.90;;;;;;5028935;28;20105;-84
2023/05/14 03:24:52;;;;;;;20.40;15.35;;;13.70;99.90;;;;;;5028132;28;20033;-84
2023/05/14 03:27:18;;;;;;;20.85;14.43;;;13.70;99.90;;;;;;5028049;28;20594;-83
2023/05/14 03:29:43;;;;;;;21.77;15.77;;;13.90;99.90;;;;;;5028503;28;20022;-84
2023/05/14 03:32:09;;;;;;;27.85;15.38;;;13.90;99.90;;;;;;5029290;28;20029;-83
2023/05/14 03:34:35;;;;;;;20.27;15.48;;;13.60;99.90;;;;;;5030910;28;20418;-83
2023/05/14 03:37:01;;;;;;;20.02;16.48;;;13.70;99.90;;;;;;5031889;28;20492;-83
2023/05/14 03:39:26;;;;;;;20.05;16.15;;;13.70;99.90;;;;;;5032057;28;20026;-83
2023/05/14 03:41:52;;;;;;;21.55;15.82;;;13.70;99.90;;;;;;5030986;28;20025;-83
2023/05/14 03:44:18;;;;;;;20.15;15.50;;;13.70;99.90;;;;;;5031631;28;20049;-83
2023/05/14 03:46:43;;;;;;;21.05;15.73;;;13.70;99.90;;;;;;5031576;28;20129;-84
2023/05/14 03:49:09;;;;;;;24.85;15.88;;;13.60;99.90;;;;;;5031066;28;20043;-83
2023/05/14 03:51:34;;;;;;;21.35;15.40;;;13.60;99.90;;;;;;5031510;28;20057;-83
2023/05/14 03:54:00;;;;;;;23.05;16.50;;;13.50;99.90;;;;;;5031952;28;20056;-84
2023/05/14 03:56:26;;;;;;;21.90;15.70;;;13.60;99.90;;;;;;5031242;28;20025;-84
2023/05/14 03:58:52;;;;;;;21.58;16.10;;;13.50;99.90;;;;;;5031438;28;20025;-83
2023/05/14 04:01:17;;;;;;;19.77;15.05;;;13.70;99.90;;;;;;5031854;28;20032;-83
2023/05/14 04:03:43;;;;;;;20.95;16.98;;;13.70;99.90;;;;;;5030843;28;20403;-83
2023/05/14 04:06:08;;;;;;;22.35;16.58;;;13.80;99.90;;;;;;5031430;28;20109;-83
2023/05/14 04:08:34;;;;;;;20.08;16.08;;;13.80;99.90;;;;;;5031135;28;20030;-83
2023/05/14 04:10:59;;;;;;;24.73;15.57;;;13.90;99.90;;;;;;5030640;28;20032;-84
2023/05/14 04:13:25;;;;;;;25.73;15.25;;;14.00;99.90;;;;;;5031659;28;20109;-84
2023/05/14 04:15:50;;;;;;;19.63;15.70;;;14.00;99.90;;;;;;5031132;28;20274;-83
2023/05/14 04:18:16;;;;;;;19.95;14.13;;;14.10;99.90;;;;;;5030748;28;20021;-84
2023/05/14 04:20:42;;;;;;;20.70;16.15;;;14.20;99.90;;;;;;5030899;28;20017;-83
2023/05/14 04:23:07;;;;;;;18.73;16.52;;;14.20;99.90;;;;;;5031116;28;20033;-83
2023/05/14 04:25:33;;;;;;;18.80;15.77;;;14.00;99.90;;;;;;5030335;28;20121;-83
2023/05/14 04:27:58;;;;;;;22.50;16.45;;;14.00;99.90;;;;;;5031193;28;20051;-84
2023/05/14 04:30:24;;;;;;;22.85;16.50;;;13.80;99.90;;;;;;5030595;28;20407;-83
2023/05/14 04:32:50;;;;;;;23.25;17.00;;;13.60;99.90;;;;;;5030712;28;20029;-83
2023/05/14 04:35:15;;;;;;;19.67;17.58;;;13.60;99.90;;;;;;5031350;28;20380;-84
2023/05/14 04:37:41;;;;;;;23.65;16.45;;;13.50;99.90;;;;;;5029860;28;20029;-83
2023/05/14 04:40:10;;;;;;;25.65;17.48;;;13.60;99.90;;;;;;5031034;28;20029;-84
2023/05/14 04:42:36;;;;;;;20.50;16.92;;;13.60;99.90;;;;;;5030573;28;20036;-83
2023/05/14 04:45:01;;;;;;;22.80;18.42;;;13.50;99.90;;;;;;5029674;28;20037;-84
2023/05/14 04:47:28;;;;;;;21.27;18.70;;;13.50;99.90;;;;;;5030805;28;20042;-84
2023/05/14 04:49:54;;;;;;;22.48;18.85;;;13.60;99.90;;;;;;5030537;28;20515;-84
2023/05/14 04:52:19;;;;;;;27.02;19.35;;;13.60;99.90;;;;;;5030033;28;20039;-84
2023/05/14 04:54:45;;;;;;;22.73;18.75;;;13.50;99.90;;;;;;5030594;28;20028;-83
2023/05/14 04:57:10;;;;;;;25.25;19.63;;;13.40;99.90;;;;;;5030940;28;20029;-83
2023/05/14 04:59:36;;;;;;;22.95;18.33;;;13.40;99.90;;;;;;5029415;28;20112;-83
2023/05/14 05:02:01;;;;;;;27.92;18.52;;;13.40;99.90;;;;;;5030498;28;20112;-84
2023/05/14 05:04:27;;;;;;;24.90;19.90;;;13.50;99.90;;;;;;5030852;28;20406;-84
2023/05/14 05:06:52;;;;;;;27.15;19.48;;;13.40;99.90;;;;;;5029082;28;20042;-84
2023/05/14 05:09:18;;;;;;;23.90;19.60;;;13.40;99.90;;;;;;5030714;28;20026;-83
2023/05/14 05:11:43;;;;;;;26.10;18.98;;;13.40;99.90;;;;;;5030296;28;20048;-84
2023/05/14 05:14:09;;;;;;;25.67;19.20;;;13.40;99.90;;;;;;5029760;28;20496;-83
2023/05/14 05:16:35;;;;;;;25.58;19.80;;;13.40;99.90;;;;;;5030118;28;20033;-84
2023/05/14 05:19:00;;;;;;;23.10;17.67;;;13.30;99.90;;;;;;5030617;28;20094;-84
2023/05/14 05:21:26;;;;;;;23.08;19.33;;;13.30;99.90;;;;;;5029508;28;20029;-84
2023/05/14 05:23:51;;;;;;;29.65;19.08;;;13.30;99.90;;;;;;5030134;28;20370;-84
2023/05/14 05:26:17;;;;;;;26.55;19.33;;;13.30;99.90;;;;;;5029857;28;20036;-83
2023/05/14 05:28:42;;;;;;;27.85;17.98;;;13.20;99.90;;;;;;5029172;28;20045;-84
2023/05/14 05:31:08;;;;;;;23.73;19.13;;;13.40;99.90;;;;;;5030143;28;20495;-84
2023/05/14 05:33:34;;;;;;;26.92;17.98;;;13.30;99.90;;;;;;5030087;28;20033;-83
2023/05/14 05:36:00;;;;;;;26.42;19.00;;;13.40;99.90;;;;;;5029263;28;20211;-83
2023/05/14 05:38:25;;;;;;;23.30;17.30;;;13.50;99.90;;;;;;5029965;28;20105;-84
2023/05/14 05:40:51;;;;;;;20.83;18.08;;;13.50;99.90;;;;;;5029517;28;20034;-83
2023/05/14 05:43:17;;;;;;;21.90;16.38;;;13.50;99.90;;;;;;5029949;28;20042;-83
2023/05/14 05:45:42;;;;;;;22.38;16.98;;;13.50;99.90;;;;;;5029856;28;20048;-83
2023/05/14 05:48:08;;;;;;;21.45;17.48;;;13.50;99.90;;;;;;5029411;28;20426;-83
2023/05/14 05:50:34;;;;;;;22.20;17.27;;;13.40;99.90;;;;;;5029880;28;20022;-84
2023/05/14 05:52:59;;;;;;;20.08;17.45;;;13.40;99.90;;;;;;5029961;28;20360;-84
2023/05/14 05:55:25;;;;;;;31.60;18.23;;;13.50;99.90;;;;;;5029426;28;20029;-84
2023/05/14 05:57:51;;;;;;;22.45;18.15;;;13.60;99.90;;;;;;5029763;28;20021;-84
2023/05/14 06:00:17;;;;;;;21.58;16.67;;;13.60;99.90;;;;;;5030082;28;20566;-83
2023/05/14 06:02:43;;;;;;;19.23;17.27;;;13.80;99.90;;;;;;5029231;28;20133;-84
2023/05/14 06:05:09;;;;;;;24.48;17.65;;;13.70;99.90;;;;;;5029422;28;20158;-83
2023/05/14 06:07:35;;;;;;;19.95;17.83;;;13.70;99.90;;;;;;5029503;28;20179;-84
2023/05/14 06:10:01;;;;;;;24.30;18.10;;;13.70;99.90;;;;;;5029072;28;20034;-84
2023/05/14 06:12:27;;;;;;;22.80;17.83;;;13.70;99.90;;;;;;5029788;28;20396;-84
2023/05/14 06:14:54;;;;;;;23.55;18.02;;;13.70;99.90;;;;;;5029528;28;20165;-83
2023/05/14 06:17:20;;;;;;;25.08;18.63;;;13.80;99.90;;;;;;5028836;28;20383;-83
2023/05/14 06:19:46;;;;;;;28.02;21.45;;;13.80;99.90;;;;;;5029238;28;20028;-84
2023/05/14 06:22:11;;;;;;;32.20;20.48;;;13.80;99.90;;;;;;5029649;28;20108;-83
2023/05/14 06:24:37;;;;;;;29.83;21.27;;;13.80;99.90;;;;;;5028508;28;20052;-83
2023/05/14 06:27:03;;;;;;;26.08;20.42;;;13.80;99.90;;;;;;5029450;28;20042;-83
2023/05/14 06:29:28;;;;;;;29.08;21.55;;;13.80;99.90;;;;;;5030063;28;20112;-84
2023/05/14 06:31:56;;;;;;;31.15;23.38;;;13.80;99.90;;;;;;5028126;28;20029;-83
2023/05/14 06:34:21;;;;;;;33.55;23.50;;;13.80;99.90;;;;;;5029021;28;20121;-84
2023/05/14 06:36:47;;;;;;;30.00;23.05;;;13.90;99.90;;;;;;5029233;28;20441;-83
2023/05/14 06:39:12;;;;;;;33.83;23.15;;;13.80;99.90;;;;;;5028770;28;20045;-83
2023/05/14 06:41:38;;;;;;;34.80;22.88;;;13.90;99.90;;;;;;5028924;28;20070;-83
2023/05/14 06:44:03;;;;;;;25.65;21.55;;;13.90;99.90;;;;;;5028210;28;20076;-83
2023/05/14 06:46:29;;;;;;;36.10;22.15;;;13.90;99.90;;;;;;5029361;28;20434;-83
2023/05/14 06:48:54;;;;;;;27.48;20.70;;;14.10;99.90;;;;;;5028691;28;20464;-85
2023/05/14 06:51:20;;;;;;;32.22;21.83;;;14.00;99.90;;;;;;5028161;28;20025;-84
2023/05/14 06:53:47;;;;;;;26.80;20.38;;;14.00;99.90;;;;;;5028678;28;20033;-84
2023/05/14 06:56:13;;;;;;;27.80;22.13;;;14.00;99.90;;;;;;5029088;28;20467;-84
2023/05/14 06:58:39;;;;;;;25.77;20.05;;;13.90;99.90;;;;;;5028276;28;20025;-84
2023/05/14 07:01:05;;;;;;;32.28;20.40;;;13.90;99.90;;;;;;5029221;28;20033;-85
2023/05/14 07:03:31;;;;;;;25.90;19.85;;;14.00;99.90;;;;;;5029118;28;20388;-84
2023/05/14 07:05:56;;;;;;;24.10;18.35;;;14.00;99.90;;;;;;5028356;28;20027;-85
2023/05/14 07:08:22;;;;;;;21.45;17.52;;;14.10;99.90;;;;;;5031411;28;20033;-84
2023/05/14 07:10:47;;;;;;;20.45;17.80;;;14.20;99.90;;;;;;5031762;28;20025;-84
2023/05/14 07:13:13;;;;;;;23.20;18.30;;;14.30;99.90;;;;;;5031745;28;20045;-84
2023/05/14 07:15:39;;;;;;;24.25;18.02;;;14.30;99.90;;;;;;5031654;28;20430;-84
2023/05/14 07:18:04;;;;;;;23.77;17.67;;;14.30;99.90;;;;;;5031956;28;20022;-84
2023/05/14 07:20:30;;;;;;;20.40;16.08;;;14.30;99.90;;;;;;5031457;28;20091;-84
2023/05/14 07:22:55;;;;;;;20.42;17.40;;;14.50;99.90;;;;;;5031597;28;20026;-85
2023/05/14 07:25:21;;;;;;;26.40;17.60;;;14.50;99.90;;;;;;5032178;28;20026;-84
2023/05/14 07:27:46;;;;;;;18.20;16.48;;;14.50;99.90;;;;;;5031207;28;20029;-84
2023/05/14 07:30:12;;;;;;;22.00;16.90;;;14.40;99.90;;;;;;5031831;28;20329;-85
2023/05/14 07:32:38;;;;;;;20.15;16.35;;;14.40;99.90;;;;;;5031336;28;20477;-84
2023/05/14 07:35:04;;;;;;;20.27;16.85;;;14.50;99.90;;;;;;5031387;28;20025;-84
2023/05/14 07:37:29;;;;;;;22.52;17.02;;;14.50;99.90;;;;;;5031811;28;20086;-84
2023/05/14 07:39:55;;;;;;;24.55;17.85;;;14.60;99.90;;;;;;5031681;28;20033;-84
2023/05/14 07:42:20;;;;;;;22.58;18.02;;;14.70;99.90;;;;;;5031154;28;20022;-84
2023/05/14 07:44:46;;;;;;;23.77;16.88;;;14.60;99.90;;;;;;5031464;28;20079;-84
2023/05/14 07:47:12;;;;;;;25.35;17.20;;;14.70;99.90;;;;;;5031562;28;20055;-85
2023/05/14 07:49:37;;;;;;;18.05;15.80;;;14.70;99.90;;;;;;5030799;28;20017;-84
2023/05/14 07:52:03;;;;;;;28.83;16.85;;;14.70;99.90;;;;;;5031862;28;20022;-85
2023/05/14 07:54:28;;;;;;;23.35;17.48;;;14.70;99.90;;;;;;5030793;28;20017;-85
2023/05/14 07:56:54;;;;;;;25.52;19.88;;;14.90;99.90;;;;;;5031268;28;20025;-85
2023/05/14 07:59:20;;;;;;;24.70;21.00;;;14.70;99.90;;;;;;5031766;28;20056;-85
2023/05/14 08:01:45;;;;;;;27.00;20.80;;;14.70;99.90;;;;;;5030226;28;20472;-84
2023/05/14 08:04:11;;;;;;;27.08;21.80;;;14.80;99.90;;;;;;5031768;28;20029;-85
2023/05/14 08:06:37;;;;;;;27.88;22.17;;;14.80;99.90;;;;;;5031125;28;20037;-84
2023/05/14 08:09:04;;;;;;;32.58;23.88;;;14.80;99.90;;;;;;5031157;28;20014;-84
2023/05/14 08:11:30;;;;;;;29.30;23.98;;;14.70;99.90;;;;;;5031433;28;20053;-84
2023/05/14 08:13:56;;;;;;;28.73;23.38;;;14.80;99.90;;;;;;5031019;28;20066;-85
2023/05/14 08:16:22;;;;;;;31.55;23.30;;;14.80;99.90;;;;;;5030833;28;20078;-85
2023/05/14 08:18:48;;;;;;;29.45;24.33;;;14.80;99.90;;;;;;5029807;28;20453;-84
2023/05/14 08:21:13;;;;;;;36.53;25.13;;;14.80;99.90;;;;;;5031258;28;20076;-84
2023/05/14 08:23:39;;;;;;;28.30;24.13;;;15.00;99.90;;;;;;5030481;28;20358;-85
2023/05/14 08:26:04;;;;;;;54.78;24.58;;;14.90;99.90;;;;;;5031149;28;20022;-85
2023/05/14 08:28:30;;;;;;;31.50;24.42;;;15.00;99.90;;;;;;5031079;28;20025;-84
2023/05/14 08:30:56;;;;;;;30.20;23.85;;;15.10;99.90;;;;;;5029854;28;20056;-85
2023/05/14 08:33:22;;;;;;;29.63;24.23;;;15.10;99.90;;;;;;5031245;28;20029;-85
2023/05/14 08:35:50;;;;;;;31.35;23.75;;;15.20;99.90;;;;;;5030729;28;20032;-85
2023/05/14 08:38:16;;;;;;;28.77;21.13;;;15.30;99.90;;;;;;5030248;28;20033;-85
2023/05/14 08:40:41;;;;;;;29.80;20.73;;;15.30;99.90;;;;;;5030346;28;20430;-84
2023/05/14 08:43:09;;;;;;;25.17;20.17;;;15.40;99.90;;;;;;5030712;28;20053;-85
2023/05/14 08:45:36;;;;;;;33.03;21.83;;;15.40;99.90;;;;;;5029690;28;20152;-85
2023/05/14 08:48:07;;;;;;;28.42;21.10;;;15.50;99.90;;;;;;5030696;28;20045;-85
2023/05/14 08:50:34;;;;;;;;;;;15.50;99.90;;;;;;5030996;28;20029;-85
2023/05/14 08:53:00;;;;;;;23.50;16.08;;;15.60;99.90;;;;;;5030506;28;19909;-84
2023/05/14 08:55:27;;;;;;;17.23;14.05;;;15.60;99.90;;;;;;5030896;28;20116;-85
2023/05/14 08:57:52;;;;;;;19.70;14.80;;;15.60;99.90;;;;;;5029718;28;20074;-85
2023/05/14 09:00:18;;;;;;;23.40;16.52;;;15.70;99.90;;;;;;5030259;28;20022;-85
2023/05/14 09:02:46;;;;;;;29.27;18.65;;;15.70;99.90;;;;;;5030333;28;20542;-85
2023/05/14 09:05:12;;;;;;;19.48;15.20;;;15.70;99.90;;;;;;5030067;28;20079;-85
2023/05/14 09:07:38;;;;;;;21.50;15.60;;;15.80;99.90;;;;;;5030454;28;20043;-85
2023/05/14 09:10:04;;;;;;;19.98;14.63;;;15.90;99.90;;;;;;5030450;28;20057;-85
2023/05/14 09:12:30;;;;;;;15.98;14.05;;;15.90;99.90;;;;;;5029835;28;20058;-83
2023/05/14 09:14:55;;;;;;;22.17;14.55;;;15.80;99.90;;;;;;5029929;28;20025;-83
2023/05/14 09:17:24;;;;;;;16.35;14.68;;;15.90;99.90;;;;;;5030501;28;20078;-84
2023/05/14 09:19:51;;;;;;;16.60;14.80;;;15.90;99.90;;;;;;5029378;28;20029;-84
2023/05/14 09:22:17;;;;;;;17.00;13.70;;;16.00;99.90;;;;;;5030225;28;20472;-84
2023/05/14 09:24:44;;;;;;;20.42;14.23;;;16.00;99.90;;;;;;5029914;28;20435;-84
2023/05/14 09:27:20;;;;;;;23.60;16.35;;;16.00;99.90;;;;;;5029410;28;20045;-83
2023/05/14 09:29:47;;;;;;;19.48;15.85;;;16.10;99.90;;;;;;5029779;28;20033;-86
2023/05/14 09:32:12;;;;;;;34.15;14.45;;;16.00;99.90;;;;;;5030045;28;20437;-85
2023/05/14 09:34:39;;;;;;;18.80;13.82;;;16.10;99.90;;;;;;5029087;28;20062;-85
2023/05/14 09:37:06;;;;;;;24.65;14.73;;;16.10;99.90;;;;;;5029910;28;20473;-85
2023/05/14 09:39:33;;;;;;;14.77;13.30;;;16.10;99.90;;;;;;5030608;28;20125;-85
2023/05/14 09:41:58;;;;;;;18.52;14.07;;;16.20;99.90;;;;;;5029621;28;20041;-86
2023/05/14 09:44:24;;;;;;;16.42;13.13;;;16.20;99.90;;;;;;5029794;28;20049;-84
2023/05/14 09:46:51;;;;;;;18.98;13.77;;;16.30;99.90;;;;;;5029498;28;20122;-85
2023/05/14 09:49:17;;;;;;;20.83;14.07;;;16.60;99.90;;;;;;5029877;28;20029;-85
2023/05/14 09:51:42;;;;;;;14.98;13.48;;;16.30;99.90;;;;;;5029798;28;20120;-84
2023/05/14 09:54:08;;;;;;;14.80;13.25;;;16.30;99.90;;;;;;5029481;28;20421;-84
2023/05/14 09:56:35;;;;;;;22.10;14.35;;;16.30;99.90;;;;;;5029969;28;20029;-85
2023/05/14 09:59:01;;;;;;;24.38;13.50;;;16.30;99.90;;;;;;5029528;28;20392;-85
2023/05/14 10:01:28;;;;;;;17.08;12.82;;;16.30;99.90;;;;;;5029349;28;20025;-85
2023/05/14 10:03:54;;;;;;;18.30;13.52;;;16.40;99.90;;;;;;5029532;28;20430;-85
2023/05/14 10:06:24;;;;;;;18.35;12.82;;;16.40;99.90;;;;;;5029560;28;20041;-85
2023/05/14 10:08:56;;;;;;;17.35;13.32;;;16.40;99.90;;;;;;5028861;28;20036;-85
2023/05/14 10:11:26;;;;;;;17.23;12.68;;;16.40;99.90;;;;;;5029468;28;20366;-85
2023/05/14 10:14:17;;;;;;;15.13;12.85;;;16.40;99.90;;;;;;5029487;28;20033;-86
2023/05/14 10:16:48;;;;;;;17.13;14.20;;;16.50;99.90;;;;;;5028609;28;20032;-85
2023/05/14 10:19:15;;;;;;;19.20;13.10;;;16.60;99.90;;;;;;5029370;28;20021;-86
2023/05/14 10:21:44;;;;;;;20.45;13.38;;;16.60;99.90;;;;;;5029174;28;20041;-85
2023/05/14 10:24:11;;;;;;;16.52;13.05;;;16.60;99.90;;;;;;5028922;28;20117;-84
2023/05/14 10:26:39;;;;;;;16.80;12.07;;;16.70;99.90;;;;;;5029080;28;20358;-85
2023/05/14 10:29:05;;;;;;;19.88;11.90;;;16.70;99.90;;;;;;5028567;28;20026;-85
2023/05/14 10:31:55;;;;;;;14.95;12.75;;;16.70;99.90;;;;;;5028859;28;20389;-85
2023/05/14 10:34:39;;;;;;;14.95;11.85;;;16.80;99.90;;;;;;5029371;28;20033;-85
2023/05/14 10:37:10;;;;;;;20.63;12.77;;;16.80;99.90;;;;;;5028257;28;20383;-84
2023/05/14 10:39:54;;;;;;;;;;;17.10;99.90;;;;;;5029233;28;20055;-85
2023/05/14 10:42:38;;;;;;;17.48;12.52;;;16.90;99.90;;;;;;5029908;28;20276;-84
2023/05/14 10:45:12;;;;;;;23.65;13.75;;;16.90;99.90;;;;;;5032133;28;20110;-85
2023/05/14 10:47:41;;;;;;;21.05;13.45;;;16.90;99.90;;;;;;5032223;28;20090;-85
2023/05/14 10:50:09;;;;;;;18.60;13.32;;;16.90;99.90;;;;;;5032961;28;20037;-85
2023/05/14 10:52:35;;;;;;;17.73;12.63;;;16.90;99.90;;;;;;5032530;28;20045;-85
2023/05/14 10:55:08;;;;;;;26.15;13.18;;;17.00;99.90;;;;;;5032613;28;20078;-85
2023/05/14 10:57:36;;;;;;;27.60;13.05;;;17.10;99.90;;;;;;5031793;28;20057;-84
2023/05/14 11:00:06;;;;;;;13.57;12.13;;;17.10;99.90;;;;;;5032517;28;20043;-85
2023/05/14 11:02:34;;;;;;;23.23;13.25;;;17.20;99.90;;;;;;5032232;28;20030;-85
2023/05/14 11:05:03;;;;;;;14.27;11.18;;;17.20;99.90;;;;;;5031597;28;20053;-85
2023/05/14 11:07:34;;;;;;;23.92;11.32;;;17.60;99.90;;;;;;5032427;28;20061;-85
2023/05/14 11:10:09;;;;;;;14.15;10.43;;;17.30;99.90;;;;;;5032385;28;20369;-85
2023/05/14 11:12:37;;;;;;;13.70;11.65;;;17.40;99.90;;;;;;5031238;28;20033;-85
2023/05/14 11:15:08;;;;;;;16.67;12.15;;;17.40;99.90;;;;;;5032138;28;20078;-85
2023/05/14 11:17:35;;;;;;;14.13;11.07;;;17.50;99.90;;;;;;5032034;28;20060;-85
2023/05/14 11:20:01;;;;;;;13.95;11.23;;;17.50;99.90;;;;;;5031192;28;20028;-85
2023/05/14 11:22:26;;;;;;;17.00;11.80;;;17.50;99.90;;;;;;5031939;28;20033;-85
2023/05/14 11:24:52;;;;;;;13.98;10.73;;;17.60;99.90;;;;;;5030443;28;20389;-85
2023/05/14 11:27:19;;;;;;;14.57;11.43;;;17.60;99.90;;;;;;5031304;28;20128;-85
2023/05/14 11:29:46;;;;;;;17.15;11.85;;;17.80;99.90;;;;;;5031878;28;20392;-84
2023/05/14 11:32:13;;;;;;;11.98;10.95;;;17.60;99.90;;;;;;5031789;28;20030;-85
2023/05/14 11:34:40;;;;;;;14.35;10.23;;;17.60;99.90;;;;;;5031277;28;20030;-85
2023/05/14 11:37:07;;;;;;;13.55;10.52;;;17.60;99.90;;;;;;5031925;28;20047;-85
2023/05/14 11:39:34;;;;;;;17.00;10.25;;;17.60;99.90;;;;;;5030795;28;20158;-85
2023/05/14 11:42:11;;;;;;;16.02;10.82;;;17.70;99.90;;;;;;5031731;28;20025;-85
2023/05/14 11:44:43;;;;;;;17.55;8.93;;;17.80;99.90;;;;;;5031048;28;20068;-85
2023/05/14 11:47:09;;;;;;;13.13;8.90;;;17.70;99.90;;;;;;5030822;28;20045;-85
2023/05/14 11:49:36;;;;;;;12.57;9.60;;;17.70;99.90;;;;;;5031427;28;20025;-85
2023/05/14 11:52:04;;;;;;;13.27;8.90;;;17.70;99.90;;;;;;5031665;28;20455;-85
2023/05/14 11:54:31;;;;;;;12.27;9.30;;;17.90;99.90;;;;;;5031333;28;20034;-85
2023/05/14 11:56:58;;;;;;;16.75;9.45;;;18.00;99.90;;;;;;5031398;28;20075;-85
2023/05/14 11:59:28;;;;;;;13.05;9.40;;;18.00;99.90;;;;;;5031332;28;20022;-85
2023/05/14 12:01:57;;;;;;;17.50;10.35;;;18.00;99.90;;;;;;5030663;28;20116;-85
2023/05/14 12:04:23;;;;;;;13.52;9.85;;;18.10;99.90;;;;;;5031419;28;20033;-85
2023/05/14 12:06:50;;;;;;;20.27;10.35;;;18.10;99.90;;;;;;5031138;28;20041;-85
2023/05/14 12:09:16;;;;;;;20.20;9.30;;;18.00;99.90;;;;;;5030608;28;20037;-85
2023/05/14 12:11:45;;;;;;;16.60;9.60;;;18.10;99.90;;;;;;5031183;28;20066;-85
2023/05/14 12:14:15;;;;;;;13.73;10.10;;;18.10;99.90;;;;;;5031431;28;20055;-85
2023/05/14 12:16:42;;;;;;;15.73;10.18;;;18.10;99.90;;;;;;5030592;28;20066;-86
2023/05/14 12:19:10;;;;;;;13.60;9.60;;;18.20;99.90;;;;;;5031432;28;20041;-86
2023/05/14 12:21:37;;;;;;;12.73;9.23;;;18.10;99.90;;;;;;5030481;28;20071;-85
2023/05/14 12:24:03;;;;;;;12.27;9.55;;;18.30;99.90;;;;;;5031051;28;20035;-85
2023/05/14 12:26:32;;;;;;;17.13;9.45;;;18.40;99.90;;;;;;5030976;28;20033;-85